createdAt,value
2018-05-27T00:00:23.207Z,17.50
2018-05-27T00:03:55.709Z,17.00
2018-05-27T00:07:28.976Z,17.27
2018-05-27T00:11:01.470Z,15.40
2018-05-27T00:14:33.948Z,14.20
2018-05-27T00:18:06.444Z,15.60
2018-05-27T00:21:38.924Z,17.37
2018-05-27T00:25:11.429Z,13.77
2018-05-27T00:28:44.684Z,16.80
2018-05-27T00:32:17.180Z,14.67
2018-05-27T00:35:49.663Z,17.80
2018-05-27T00:39:22.155Z,18.80
2018-05-27T00:42:54.647Z,16.77
2018-05-27T00:46:27.888Z,17.37
2018-05-27T00:50:00.382Z,16.33
2018-05-27T00:53:44.800Z,18.00
2018-05-27T00:57:18.054Z,19.30
2018-05-27T01:00:50.548Z,18.40
2018-05-27T01:04:23.037Z,19.97
2018-05-27T01:07:55.527Z,21.23
2018-05-27T01:11:28.009Z,15.30
2018-05-27T01:15:00.504Z,15.80
2018-05-27T01:18:33.765Z,17.20
2018-05-27T01:22:06.252Z,16.67
2018-05-27T01:25:38.736Z,17.43
2018-05-27T01:29:11.229Z,16.97
2018-05-27T01:32:43.717Z,18.80
2018-05-27T01:36:16.206Z,17.80
2018-05-27T01:39:48.696Z,18.63
2018-05-27T01:43:21.948Z,18.90
2018-05-27T01:46:54.436Z,17.93
2018-05-27T01:50:26.929Z,18.03
2018-05-27T01:53:59.428Z,16.93
2018-05-27T01:57:31.916Z,16.50
2018-05-27T02:01:04.403Z,21.20
2018-05-27T02:04:37.669Z,20.37
2018-05-27T02:08:10.169Z,18.40
2018-05-27T02:11:42.659Z,16.83
2018-05-27T02:15:15.144Z,18.90
2018-05-27T02:18:47.642Z,17.00
2018-05-27T02:22:20.883Z,17.77
2018-05-27T02:25:53.386Z,16.80
2018-05-27T02:29:25.883Z,15.60
2018-05-27T02:32:58.376Z,17.60
2018-05-27T02:36:30.866Z,21.97
2018-05-27T02:40:04.123Z,21.63
2018-05-27T02:43:36.620Z,20.90
2018-05-27T02:47:09.107Z,18.67
2018-05-27T02:50:41.600Z,20.80
2018-05-27T02:54:14.097Z,19.10
2018-05-27T02:57:47.349Z,18.50
2018-05-27T03:01:19.836Z,19.30
2018-05-27T03:04:52.335Z,17.43
2018-05-27T03:08:24.825Z,17.27
2018-05-27T03:11:57.316Z,19.13
2018-05-27T03:15:30.579Z,19.20
2018-05-27T03:19:03.064Z,16.63
2018-05-27T03:22:35.559Z,19.30
2018-05-27T03:26:08.044Z,17.13
2018-05-27T03:29:40.532Z,16.90
2018-05-27T03:33:13.025Z,16.37
2018-05-27T03:36:46.279Z,16.50
2018-05-27T03:40:18.768Z,17.37
2018-05-27T03:43:51.268Z,18.50
2018-05-27T03:47:23.772Z,20.50
2018-05-27T03:50:57.031Z,17.07
2018-05-27T03:54:29.524Z,18.53
2018-05-27T03:58:02.025Z,17.90
2018-05-27T04:01:35.332Z,18.27
2018-05-27T04:05:19.732Z,19.10
2018-05-27T04:08:52.221Z,17.17
2018-05-27T04:12:24.712Z,18.30
2018-05-27T04:15:57.203Z,19.20
2018-05-27T04:19:29.698Z,16.40
2018-05-27T04:23:02.186Z,19.13
2018-05-27T04:26:34.669Z,20.00
2018-05-27T04:30:07.169Z,18.97
2018-05-27T04:33:39.656Z,19.10
2018-05-27T04:37:12.137Z,19.63
2018-05-27T04:40:45.388Z,17.87
2018-05-27T04:44:17.881Z,18.13
2018-05-27T04:47:50.369Z,19.43
2018-05-27T04:51:22.846Z,19.23
2018-05-27T04:54:55.336Z,19.03
2018-05-27T04:58:27.840Z,21.10
2018-05-27T05:02:00.332Z,23.27
2018-05-27T05:05:33.588Z,22.83
2018-05-27T05:09:06.089Z,21.40
2018-05-27T05:12:38.592Z,21.57
2018-05-27T05:16:11.069Z,22.57
2018-05-27T05:19:43.560Z,21.60
2018-05-27T05:23:16.815Z,21.70
2018-05-27T05:26:49.445Z,19.87
2018-05-27T05:30:22.691Z,24.00
2018-05-27T05:33:55.188Z,21.30
2018-05-27T05:37:27.661Z,22.93
2018-05-27T05:41:00.155Z,20.87
2018-05-27T05:44:32.741Z,21.60
2018-05-27T05:48:05.227Z,21.90
2018-05-27T05:51:37.739Z,23.13
2018-05-27T05:55:10.222Z,21.60
2018-05-27T05:58:42.725Z,22.90
2018-05-27T06:02:15.196Z,18.77
2018-05-27T06:05:48.468Z,22.50
2018-05-27T06:09:21.117Z,20.30
2018-05-27T06:12:53.686Z,20.43
2018-05-27T06:16:26.396Z,21.00
2018-05-27T06:19:58.888Z,20.57
2018-05-27T06:23:31.376Z,20.47
2018-05-27T06:27:03.899Z,20.87
2018-05-27T06:30:36.405Z,20.70
2018-05-27T06:34:08.910Z,20.43
2018-05-27T06:37:41.391Z,19.30
2018-05-27T06:41:13.902Z,18.80
2018-05-27T06:44:46.392Z,19.20
2018-05-27T06:48:18.893Z,18.00
2018-05-27T06:51:52.240Z,15.90
2018-05-27T06:55:24.739Z,16.40
2018-05-27T06:58:57.234Z,16.93
2018-05-27T07:02:29.720Z,18.17
2018-05-27T07:06:02.203Z,16.27
2018-05-27T07:09:35.471Z,14.83
2018-05-27T07:13:08.753Z,13.97
2018-05-27T07:16:41.264Z,16.87
2018-05-27T07:20:14.206Z,15.80
2018-05-27T07:23:46.715Z,16.13
2018-05-27T07:27:19.205Z,15.53
2018-05-27T07:30:51.697Z,15.13
2018-05-27T07:34:24.191Z,16.40
2018-05-27T07:37:56.676Z,14.07
2018-05-27T07:41:29.168Z,12.30
2018-05-27T07:45:01.656Z,14.40
2018-05-27T07:48:34.128Z,14.70
2018-05-27T07:52:06.612Z,19.80
2018-05-27T07:55:39.108Z,14.33
2018-05-27T07:59:12.357Z,12.83
2018-05-27T08:02:44.848Z,14.80
2018-05-27T08:06:17.326Z,13.70
2018-05-27T08:09:49.817Z,15.07
2018-05-27T08:13:22.292Z,15.63
2018-05-27T08:16:54.792Z,13.00
2018-05-27T08:20:27.298Z,13.30
2018-05-27T08:24:00.546Z,12.87
2018-05-27T08:27:33.040Z,13.23
2018-05-27T08:31:05.517Z,12.63
2018-05-27T08:34:38.004Z,13.30
2018-05-27T08:38:10.484Z,13.33
2018-05-27T08:41:42.971Z,13.60
2018-05-27T08:45:15.461Z,12.47
2018-05-27T08:48:47.946Z,13.20
2018-05-27T08:52:20.442Z,11.70
2018-05-27T08:55:52.923Z,13.67
2018-05-27T08:59:25.539Z,11.83
2018-05-27T09:02:58.040Z,12.83
2018-05-27T09:06:30.537Z,12.43
2018-05-27T09:10:03.028Z,12.90
2018-05-27T09:13:35.515Z,12.37
2018-05-27T09:17:08.028Z,13.30
2018-05-27T09:20:40.500Z,12.50
2018-05-27T09:24:12.981Z,13.40
2018-05-27T09:27:45.468Z,13.17
2018-05-27T09:31:17.979Z,11.57
2018-05-27T09:34:51.228Z,11.97
2018-05-27T09:38:23.708Z,11.63
2018-05-27T09:41:56.204Z,10.23
2018-05-27T09:45:28.748Z,12.20
2018-05-27T09:49:01.239Z,11.87
2018-05-27T09:52:33.723Z,11.63
2018-05-27T09:56:06.212Z,13.07
2018-05-27T09:59:38.705Z,11.93
2018-05-27T10:03:11.189Z,13.33
2018-05-27T10:06:43.683Z,13.53
2018-05-27T10:10:16.163Z,12.87
2018-05-27T10:13:48.648Z,13.03
2018-05-27T10:17:21.141Z,12.07
2018-05-27T10:20:54.630Z,12.00
2018-05-27T10:24:27.296Z,13.17
2018-05-27T10:27:59.776Z,12.40
2018-05-27T10:31:32.270Z,11.70
2018-05-27T10:35:04.762Z,14.33
2018-05-27T10:38:37.264Z,12.67
2018-05-27T10:42:10.516Z,12.03
2018-05-27T10:45:43.019Z,12.30
2018-05-27T10:49:15.499Z,11.23
2018-05-27T10:52:48.035Z,11.23
2018-05-27T10:56:20.523Z,13.93
2018-05-27T10:59:53.015Z,12.00
2018-05-27T11:03:25.518Z,11.10
2018-05-27T11:06:58.012Z,15.03
2018-05-27T11:10:30.496Z,11.43
2018-05-27T11:14:02.988Z,12.53
2018-05-27T11:17:35.480Z,11.13
2018-05-27T11:21:08.728Z,11.20
2018-05-27T11:24:41.240Z,11.80
2018-05-27T11:28:13.729Z,10.60
2018-05-27T11:31:46.200Z,10.20
2018-05-27T11:35:18.684Z,9.83
2018-05-27T11:38:51.171Z,10.27
2018-05-27T11:42:23.657Z,11.10
2018-05-27T11:45:56.673Z,11.47
2018-05-27T11:49:29.925Z,10.97
2018-05-27T11:53:02.408Z,10.37
2018-05-27T11:56:34.880Z,11.00
2018-05-27T12:00:07.378Z,11.13
2018-05-27T12:03:39.877Z,10.07
2018-05-27T12:07:12.354Z,10.50
2018-05-27T12:10:44.831Z,9.80
2018-05-27T12:14:17.333Z,10.43
2018-05-27T12:17:49.823Z,11.17
2018-05-27T12:21:23.761Z,10.03
2018-05-27T12:24:56.267Z,9.93
2018-05-27T12:28:28.749Z,11.90
2018-05-27T12:32:01.220Z,9.97
2018-05-27T12:35:33.697Z,10.77
2018-05-27T12:39:06.847Z,10.43
2018-05-27T12:42:39.340Z,9.70
2018-05-27T12:46:11.817Z,10.90
2018-05-27T12:49:44.296Z,10.50
2018-05-27T12:53:16.776Z,11.23
2018-05-27T12:56:49.256Z,10.70
2018-05-27T13:00:21.747Z,9.80
2018-05-27T13:03:54.222Z,10.77
2018-05-27T13:07:26.728Z,10.40
2018-05-27T13:10:59.972Z,10.00
2018-05-27T13:14:32.439Z,9.90
2018-05-27T13:18:04.955Z,10.63
2018-05-27T13:21:37.441Z,10.20
2018-05-27T13:25:09.943Z,9.63
2018-05-27T13:28:42.424Z,9.53
2018-05-27T13:32:14.901Z,10.83
2018-05-27T13:35:47.383Z,9.70
2018-05-27T13:39:19.864Z,11.27
2018-05-27T13:42:52.347Z,9.77
2018-05-27T13:46:24.836Z,11.00
2018-05-27T13:49:57.324Z,9.00
2018-05-27T13:53:30.576Z,9.63
2018-05-27T13:57:03.055Z,11.03
2018-05-27T14:00:35.543Z,10.83
2018-05-27T14:04:08.027Z,9.30
2018-05-27T14:07:40.512Z,9.63
2018-05-27T14:11:12.987Z,9.43
2018-05-27T14:14:45.477Z,9.47
2018-05-27T14:18:18.728Z,8.93
2018-05-27T14:21:51.968Z,8.97
2018-05-27T14:25:24.451Z,9.07
2018-05-27T14:28:56.933Z,10.10
2018-05-27T14:32:29.412Z,8.83
2018-05-27T14:36:01.881Z,9.77
2018-05-27T14:39:34.372Z,10.37
2018-05-27T14:43:06.860Z,10.63
2018-05-27T14:46:39.357Z,10.90
2018-05-27T14:50:11.846Z,9.50
2018-05-27T14:53:44.330Z,8.90
2018-05-27T14:57:16.811Z,10.27
2018-05-27T15:00:49.303Z,9.60
2018-05-27T15:04:21.793Z,9.13
2018-05-27T15:07:54.268Z,9.50
2018-05-27T15:11:26.742Z,8.93
2018-05-27T15:14:59.224Z,9.20
2018-05-27T15:18:31.769Z,9.57
2018-05-27T15:22:04.209Z,8.13
2018-05-27T15:25:37.457Z,9.47
2018-05-27T15:29:09.944Z,8.70
2018-05-27T15:32:42.424Z,10.17
2018-05-27T15:36:14.901Z,8.47
2018-05-27T15:39:47.377Z,9.27
2018-05-27T15:43:19.864Z,8.07
2018-05-27T15:46:52.362Z,7.90
2018-05-27T15:50:24.855Z,8.10
2018-05-27T15:53:57.335Z,8.63
2018-05-27T15:57:29.823Z,9.27
2018-05-27T16:01:03.079Z,8.23
2018-05-27T16:04:35.572Z,9.77
2018-05-27T16:08:08.076Z,9.23
2018-05-27T16:11:40.564Z,9.50
2018-05-27T16:15:13.034Z,8.20
2018-05-27T16:18:45.515Z,9.27
2018-05-27T16:22:17.988Z,8.57
2018-05-27T16:25:51.241Z,9.90
2018-05-27T16:29:24.467Z,9.50
2018-05-27T16:32:56.960Z,10.00
2018-05-27T16:36:29.488Z,9.90
2018-05-27T16:40:01.988Z,12.10
2018-05-27T16:43:35.243Z,10.03
2018-05-27T16:47:07.715Z,9.80
2018-05-27T16:50:40.221Z,10.80
2018-05-27T16:54:12.689Z,9.10
2018-05-27T16:57:45.177Z,8.97
2018-05-27T17:01:17.653Z,9.30
2018-05-27T17:04:50.136Z,10.47
2018-05-27T17:08:22.609Z,10.63
2018-05-27T17:11:55.107Z,10.23
2018-05-27T17:15:27.582Z,8.83
2018-05-27T17:19:00.076Z,9.70
2018-05-27T17:22:32.569Z,9.47
2018-05-27T17:26:05.050Z,9.63
2018-05-27T17:29:37.548Z,8.73
2018-05-27T17:33:10.823Z,11.27
2018-05-27T17:36:43.311Z,9.83
2018-05-27T17:40:15.793Z,10.63
2018-05-27T17:43:48.293Z,11.00
2018-05-27T17:47:21.548Z,11.00
2018-05-27T17:50:54.058Z,9.80
2018-05-27T17:54:26.536Z,9.90
2018-05-27T17:58:01.476Z,10.70
2018-05-27T18:01:33.964Z,9.13
2018-05-27T18:05:06.452Z,10.67
2018-05-27T18:08:38.932Z,10.43
2018-05-27T18:12:11.416Z,10.80
2018-05-27T18:15:43.909Z,11.03
2018-05-27T18:19:16.404Z,10.67
2018-05-27T18:22:48.905Z,11.07
2018-05-27T18:26:21.412Z,10.70
2018-05-27T18:29:53.889Z,8.47
2018-05-27T18:33:26.388Z,9.70
2018-05-27T18:36:58.873Z,10.60
2018-05-27T18:40:31.570Z,10.20
2018-05-27T18:44:04.088Z,10.97
2018-05-27T18:47:36.573Z,12.50
2018-05-27T18:51:09.055Z,10.63
2018-05-27T18:54:41.548Z,10.00
2018-05-27T18:58:14.053Z,10.47
2018-05-27T19:01:46.533Z,11.53
2018-05-27T19:05:19.026Z,9.83
2018-05-27T19:08:51.512Z,10.30
2018-05-27T19:12:24.013Z,10.07
2018-05-27T19:15:56.488Z,9.50
2018-05-27T19:19:28.984Z,10.00
2018-05-27T19:23:01.480Z,11.10
2018-05-27T19:26:34.728Z,9.73
2018-05-27T19:30:07.207Z,10.47
2018-05-27T19:33:39.736Z,8.60
2018-05-27T19:37:13.001Z,11.13
2018-05-27T19:40:45.516Z,10.60
2018-05-27T19:44:18.783Z,10.50
2018-05-27T19:47:51.269Z,9.07
2018-05-27T19:51:23.783Z,9.47
2018-05-27T19:54:57.508Z,10.40
2018-05-27T19:58:30.020Z,11.17
2018-05-27T20:02:02.512Z,10.07
2018-05-27T20:05:35.552Z,10.30
2018-05-27T20:09:08.049Z,10.13
2018-05-27T20:12:41.300Z,9.60
2018-05-27T20:16:13.801Z,9.17
2018-05-27T20:19:46.304Z,11.07
2018-05-27T20:23:19.605Z,10.27
2018-05-27T20:26:52.873Z,9.10
2018-05-27T20:30:25.348Z,8.97
2018-05-27T20:33:57.890Z,10.27
2018-05-27T20:37:30.394Z,13.10
2018-05-27T20:41:07.212Z,11.80
2018-05-27T20:44:39.713Z,11.97
2018-05-27T20:48:13.054Z,11.40
2018-05-27T20:51:45.560Z,9.90
2018-05-27T20:55:18.056Z,10.90
2018-05-27T20:58:50.559Z,12.00
2018-05-27T21:02:23.808Z,9.97
2018-05-27T21:05:58.036Z,10.57
2018-05-27T21:09:30.524Z,10.37
2018-05-27T21:13:03.034Z,10.20
2018-05-27T21:16:35.508Z,9.90
2018-05-27T21:20:08.020Z,10.47
2018-05-27T21:23:41.290Z,9.60
2018-05-27T21:27:13.821Z,10.30
2018-05-27T21:30:46.307Z,12.10
2018-05-27T21:34:18.817Z,11.47
2018-05-27T21:37:51.299Z,11.90
2018-05-27T21:41:23.805Z,11.50
2018-05-27T21:44:56.367Z,12.63
2018-05-27T21:48:28.928Z,13.77
2018-05-27T21:52:01.423Z,13.23
2018-05-27T21:55:33.904Z,10.97
2018-05-27T21:59:06.388Z,11.60
2018-05-27T22:02:38.895Z,12.57
2018-05-27T22:06:11.379Z,11.50
2018-05-27T22:09:43.878Z,11.87
2018-05-27T22:13:17.148Z,12.77
2018-05-27T22:16:49.637Z,12.90
2018-05-27T22:20:22.132Z,12.23
2018-05-27T22:23:54.641Z,11.77
2018-05-27T22:27:27.892Z,12.53
2018-05-27T22:31:00.388Z,12.80
2018-05-27T22:34:32.904Z,12.37
2018-05-27T22:38:05.401Z,12.27
2018-05-27T22:41:37.871Z,11.60
2018-05-27T22:45:11.123Z,12.13
2018-05-27T22:48:43.612Z,12.17
2018-05-27T22:52:16.108Z,11.10
2018-05-27T22:55:48.588Z,12.17
2018-05-27T22:59:21.110Z,11.13
2018-05-27T23:02:53.588Z,11.57
2018-05-27T23:06:26.092Z,12.60
2018-05-27T23:09:58.580Z,12.07
2018-05-27T23:13:31.080Z,13.30
2018-05-27T23:17:03.562Z,11.23
2018-05-27T23:20:36.053Z,13.63
2018-05-27T23:24:08.556Z,11.73
2018-05-27T23:27:41.820Z,11.30
2018-05-27T23:31:14.312Z,12.47
2018-05-27T23:34:46.792Z,12.80
2018-05-27T23:38:19.284Z,11.60
2018-05-27T23:41:51.785Z,11.27
2018-05-27T23:45:24.264Z,12.13
2018-05-27T23:48:56.757Z,11.73
2018-05-27T23:52:30.017Z,12.27
2018-05-27T23:56:02.516Z,14.20
2018-05-27T23:59:35.015Z,14.30
